<?xml version="1.0" encoding="utf-8"?>
<gpx xmlns:xsi="http://www.w3.org/2001/XMLSchema-instance" xmlns:xsd="http://www.w3.org/2001/XMLSchema" version="1.1" creator="Shapelink.com" xmlns="http://www.topografix.com/GPX/1/1" xmlns:gpxtpx="http://www.garmin.com/xmlschemas/TrackPointExtension/v1">
  <metadata>
    <name>Övrigt 2.43 km, 2019-08-01</name>
    <desc></desc>
    <author><name>Marian Moron</name></author> 
    <time>2019-08-01T17:49:28Z</time>
  </metadata>
  <trk>
    <name>Övrigt 2.43 km, 2019-08-01</name>
    <trkseg>
      <trkpt lat="54.437049015622" lon="16.377329617913">
        <ele>0</ele>
        <time>2019-08-01T17:49:28Z</time>
      </trkpt>
      <trkpt lat="54.436870564971" lon="16.377311345371">
        <ele>0</ele>
        <time>2019-08-01T17:50:22Z</time>
      </trkpt>
      <trkpt lat="54.437008866321" lon="16.37730472367">
        <ele>0</ele>
        <time>2019-08-01T17:51:02Z</time>
      </trkpt>
      <trkpt lat="54.436794122043" lon="16.37733406032">
        <ele>0</ele>
        <time>2019-08-01T17:55:12Z</time>
      </trkpt>
      <trkpt lat="54.436714996907" lon="16.377545703295">
        <ele>0</ele>
        <time>2019-08-01T17:55:46Z</time>
      </trkpt>
      <trkpt lat="54.436800995201" lon="16.37730723824">
        <ele>0</ele>
        <time>2019-08-01T17:56:20Z</time>
      </trkpt>
      <trkpt lat="54.436790769283" lon="16.377356775269">
        <ele>0</ele>
        <time>2019-08-01T17:56:22Z</time>
      </trkpt>
      <trkpt lat="54.436610977528" lon="16.377898413647">
        <ele>3</ele>
        <time>2019-08-01T17:57:31Z</time>
      </trkpt>
      <trkpt lat="54.436601338343" lon="16.377944681735">
        <ele>2.4</ele>
        <time>2019-08-01T17:57:33Z</time>
      </trkpt>
      <trkpt lat="54.436595135737" lon="16.378236455674">
        <ele>0</ele>
        <time>2019-08-01T17:58:45Z</time>
      </trkpt>
      <trkpt lat="54.436649198992" lon="16.378241736271">
        <ele>0</ele>
        <time>2019-08-01T18:00:24Z</time>
      </trkpt>
      <trkpt lat="54.436780711003" lon="16.378287333807">
        <ele>0</ele>
        <time>2019-08-01T18:00:54Z</time>
      </trkpt>
      <trkpt lat="54.43676168409" lon="16.378286327979">
        <ele>0</ele>
        <time>2019-08-01T18:03:59Z</time>
      </trkpt>
      <trkpt lat="54.436744417376" lon="16.378330752049">
        <ele>0</ele>
        <time>2019-08-01T18:05:01Z</time>
      </trkpt>
      <trkpt lat="54.436749362697" lon="16.378338295759">
        <ele>0</ele>
        <time>2019-08-01T18:08:46Z</time>
      </trkpt>
      <trkpt lat="54.437013560185" lon="16.378508196872">
        <ele>0</ele>
        <time>2019-08-01T18:09:59Z</time>
      </trkpt>
      <trkpt lat="54.436972572694" lon="16.378461593508">
        <ele>0</ele>
        <time>2019-08-01T18:11:02Z</time>
      </trkpt>
      <trkpt lat="54.436967627373" lon="16.378466203553">
        <ele>0</ele>
        <time>2019-08-01T18:12:12Z</time>
      </trkpt>
      <trkpt lat="54.437024456655" lon="16.378454804169">
        <ele>0</ele>
        <time>2019-08-01T18:16:15Z</time>
      </trkpt>
      <trkpt lat="54.437024959569" lon="16.378452624875">
        <ele>0</ele>
        <time>2019-08-01T18:16:22Z</time>
      </trkpt>
      <trkpt lat="54.437073909865" lon="16.37850333537">
        <ele>0</ele>
        <time>2019-08-01T18:27:52Z</time>
      </trkpt>
      <trkpt lat="54.437062426662" lon="16.378435358161">
        <ele>0</ele>
        <time>2019-08-01T18:28:20Z</time>
      </trkpt>
      <trkpt lat="54.437070808562" lon="16.378420857474">
        <ele>0</ele>
        <time>2019-08-01T18:28:58Z</time>
      </trkpt>
      <trkpt lat="54.437051027278" lon="16.378485901018">
        <ele>0</ele>
        <time>2019-08-01T18:29:23Z</time>
      </trkpt>
      <trkpt lat="54.437043986482" lon="16.37851842279">
        <ele>0</ele>
        <time>2019-08-01T18:30:31Z</time>
      </trkpt>
      <trkpt lat="54.437022947913" lon="16.378480620421">
        <ele>0</ele>
        <time>2019-08-01T18:30:40Z</time>
      </trkpt>
      <trkpt lat="54.437039544075" lon="16.378539628997">
        <ele>0</ele>
        <time>2019-08-01T18:30:50Z</time>
      </trkpt>
      <trkpt lat="54.437202907306" lon="16.378635266476">
        <ele>0</ele>
        <time>2019-08-01T18:31:49Z</time>
      </trkpt>
      <trkpt lat="54.437275829836" lon="16.37862319654">
        <ele>0</ele>
        <time>2019-08-01T18:32:00Z</time>
      </trkpt>
      <trkpt lat="54.437407677123" lon="16.378169651931">
        <ele>0</ele>
        <time>2019-08-01T18:32:38Z</time>
      </trkpt>
      <trkpt lat="54.437452101193" lon="16.378077031936">
        <ele>0</ele>
        <time>2019-08-01T18:32:48Z</time>
      </trkpt>
      <trkpt lat="54.437461153645" lon="16.378076780479">
        <ele>0</ele>
        <time>2019-08-01T18:32:52Z</time>
      </trkpt>
      <trkpt lat="54.437428799511" lon="16.378176944184">
        <ele>0</ele>
        <time>2019-08-01T18:32:58Z</time>
      </trkpt>
      <trkpt lat="54.437217743269" lon="16.378794271119">
        <ele>0</ele>
        <time>2019-08-01T18:33:45Z</time>
      </trkpt>
      <trkpt lat="54.437211708301" lon="16.37876485065">
        <ele>0</ele>
        <time>2019-08-01T18:35:12Z</time>
      </trkpt>
      <trkpt lat="54.437182120194" lon="16.378755546741">
        <ele>0</ele>
        <time>2019-08-01T18:35:46Z</time>
      </trkpt>
      <trkpt lat="54.437149011689" lon="16.378715900354">
        <ele>0</ele>
        <time>2019-08-01T18:35:52Z</time>
      </trkpt>
      <trkpt lat="54.437105174352" lon="16.378665692773">
        <ele>0</ele>
        <time>2019-08-01T18:35:58Z</time>
      </trkpt>
      <trkpt lat="54.437039795532" lon="16.378530325088">
        <ele>0</ele>
        <time>2019-08-01T18:36:09Z</time>
      </trkpt>
      <trkpt lat="54.437037113324" lon="16.378412056479">
        <ele>0</ele>
        <time>2019-08-01T18:37:09Z</time>
      </trkpt>
      <trkpt lat="54.437052200744" lon="16.378469304856">
        <ele>0</ele>
        <time>2019-08-01T18:38:31Z</time>
      </trkpt>
      <trkpt lat="54.437124871817" lon="16.378569384742">
        <ele>0</ele>
        <time>2019-08-01T18:38:49Z</time>
      </trkpt>
      <trkpt lat="54.437215480156" lon="16.378651443543">
        <ele>0</ele>
        <time>2019-08-01T18:39:05Z</time>
      </trkpt>
      <trkpt lat="54.437277506216" lon="16.378687820989">
        <ele>0</ele>
        <time>2019-08-01T18:39:15Z</time>
      </trkpt>
      <trkpt lat="54.43734338795" lon="16.378735849276">
        <ele>0</ele>
        <time>2019-08-01T18:39:25Z</time>
      </trkpt>
      <trkpt lat="54.437483198042" lon="16.378837354085">
        <ele>0</ele>
        <time>2019-08-01T18:39:45Z</time>
      </trkpt>
      <trkpt lat="54.437553689821" lon="16.378914719022">
        <ele>0</ele>
        <time>2019-08-01T18:39:56Z</time>
      </trkpt>
      <trkpt lat="54.437687548764" lon="16.379067772516">
        <ele>0</ele>
        <time>2019-08-01T18:40:39Z</time>
      </trkpt>
      <trkpt lat="54.437975299391" lon="16.379306824304">
        <ele>0</ele>
        <time>2019-08-01T18:42:01Z</time>
      </trkpt>
      <trkpt lat="54.438274030307" lon="16.379489717362">
        <ele>0</ele>
        <time>2019-08-01T18:43:39Z</time>
      </trkpt>
      <trkpt lat="54.438286016424" lon="16.379585522479">
        <ele>0</ele>
        <time>2019-08-01T18:44:27Z</time>
      </trkpt>
      <trkpt lat="54.438299176007" lon="16.379591641266">
        <ele>0</ele>
        <time>2019-08-01T18:44:30Z</time>
      </trkpt>
      <trkpt lat="54.438543089297" lon="16.379642938494">
        <ele>0</ele>
        <time>2019-08-01T18:45:11Z</time>
      </trkpt>
      <trkpt lat="54.43861743675" lon="16.379696163559">
        <ele>0</ele>
        <time>2019-08-01T18:45:23Z</time>
      </trkpt>
      <trkpt lat="54.438812148287" lon="16.379925073248">
        <ele>0</ele>
        <time>2019-08-01T18:47:01Z</time>
      </trkpt>
      <trkpt lat="54.438737549377" lon="16.379870926174">
        <ele>0</ele>
        <time>2019-08-01T18:47:10Z</time>
      </trkpt>
      <trkpt lat="54.438710392021" lon="16.37983857204">
        <ele>0</ele>
        <time>2019-08-01T18:47:14Z</time>
      </trkpt>
      <trkpt lat="54.438638223862" lon="16.379827843208">
        <ele>0</ele>
        <time>2019-08-01T18:47:33Z</time>
      </trkpt>
      <trkpt lat="54.438628249401" lon="16.379857934229">
        <ele>0</ele>
        <time>2019-08-01T18:50:21Z</time>
      </trkpt>
      <trkpt lat="54.438539987994" lon="16.379683339252">
        <ele>0</ele>
        <time>2019-08-01T18:50:43Z</time>
      </trkpt>
      <trkpt lat="54.438429179276" lon="16.379637238802">
        <ele>0</ele>
        <time>2019-08-01T18:50:57Z</time>
      </trkpt>
      <trkpt lat="54.43839615459" lon="16.379619469174">
        <ele>0</ele>
        <time>2019-08-01T18:51:01Z</time>
      </trkpt>
      <trkpt lat="54.438184511615" lon="16.379544032074">
        <ele>1.2</ele>
        <time>2019-08-01T18:51:27Z</time>
      </trkpt>
      <trkpt lat="54.438141931563" lon="16.379527855007">
        <ele>0.4</ele>
        <time>2019-08-01T18:51:35Z</time>
      </trkpt>
      <trkpt lat="54.43807764239" lon="16.379491309923">
        <ele>0</ele>
        <time>2019-08-01T18:51:44Z</time>
      </trkpt>
      <trkpt lat="54.437686040022" lon="16.379136336458">
        <ele>0</ele>
        <time>2019-08-01T18:52:46Z</time>
      </trkpt>
      <trkpt lat="54.437638682287" lon="16.379092750578">
        <ele>0</ele>
        <time>2019-08-01T18:53:04Z</time>
      </trkpt>
      <trkpt lat="54.437611860207" lon="16.379047404499">
        <ele>0</ele>
        <time>2019-08-01T18:53:35Z</time>
      </trkpt>
      <trkpt lat="54.437229813205" lon="16.378874569721">
        <ele>0</ele>
        <time>2019-08-01T18:54:43Z</time>
      </trkpt>
      <trkpt lat="54.437409437322" lon="16.378959729825">
        <ele>0</ele>
        <time>2019-08-01T18:55:48Z</time>
      </trkpt>
      <trkpt lat="54.437180276176" lon="16.378717157639">
        <ele>1.4</ele>
        <time>2019-08-01T19:46:19Z</time>
      </trkpt>
      <trkpt lat="54.436820273571" lon="16.37836587221">
        <ele>2.6</ele>
        <time>2019-08-01T19:47:57Z</time>
      </trkpt>
      <trkpt lat="54.436638805436" lon="16.378260176451">
        <ele>3.2</ele>
        <time>2019-08-01T19:48:23Z</time>
      </trkpt>
      <trkpt lat="54.43654040193" lon="16.378120701635">
        <ele>4.6</ele>
        <time>2019-08-01T19:48:51Z</time>
      </trkpt>
      <trkpt lat="54.43634929461" lon="16.377992207108">
        <ele>4.4</ele>
        <time>2019-08-01T19:49:19Z</time>
      </trkpt>
      <trkpt lat="54.436262039031" lon="16.377891205213">
        <ele>3</ele>
        <time>2019-08-01T19:49:36Z</time>
      </trkpt>
      <trkpt lat="54.436226415956" lon="16.377875782517">
        <ele>2.4</ele>
        <time>2019-08-01T19:49:41Z</time>
      </trkpt>
      <trkpt lat="54.43617830385" lon="16.377866394789">
        <ele>2.6</ele>
        <time>2019-08-01T19:49:56Z</time>
      </trkpt>
      <trkpt lat="54.436156091815" lon="16.377846781143">
        <ele>2.6</ele>
        <time>2019-08-01T19:49:59Z</time>
      </trkpt>
      <trkpt lat="54.436103621121" lon="16.377783665436">
        <ele>3</ele>
        <time>2019-08-01T19:50:10Z</time>
      </trkpt>
      <trkpt lat="54.436059197051" lon="16.377740833927">
        <ele>2.4</ele>
        <time>2019-08-01T19:50:25Z</time>
      </trkpt>
      <trkpt lat="54.436005720529" lon="16.377679562238">
        <ele>2.2</ele>
        <time>2019-08-01T19:50:33Z</time>
      </trkpt>
      <trkpt lat="54.435770440596" lon="16.37749666918">
        <ele>1.2</ele>
        <time>2019-08-01T19:51:16Z</time>
      </trkpt>
      <trkpt lat="54.43569215365" lon="16.37744805416">
        <ele>1.4</ele>
        <time>2019-08-01T19:51:27Z</time>
      </trkpt>
      <trkpt lat="54.435583608045" lon="16.377236327366">
        <ele>4.2</ele>
        <time>2019-08-01T19:51:58Z</time>
      </trkpt>
      <trkpt lat="54.435565000227" lon="16.377078999103">
        <ele>3.8</ele>
        <time>2019-08-01T19:52:09Z</time>
      </trkpt>
      <trkpt lat="54.435564581132" lon="16.37702057726">
        <ele>2.6</ele>
        <time>2019-08-01T19:52:13Z</time>
      </trkpt>
      <trkpt lat="54.435581009656" lon="16.376819076384">
        <ele>0.8</ele>
        <time>2019-08-01T19:52:27Z</time>
      </trkpt>
      <trkpt lat="54.435616465093" lon="16.376599470604">
        <ele>1.2</ele>
        <time>2019-08-01T19:52:43Z</time>
      </trkpt>
      <trkpt lat="54.435638593309" lon="16.376209712254">
        <ele>0</ele>
        <time>2019-08-01T19:53:09Z</time>
      </trkpt>
      <trkpt lat="54.435637000748" lon="16.376020113676">
        <ele>0</ele>
        <time>2019-08-01T19:53:22Z</time>
      </trkpt>
      <trkpt lat="54.43564186225" lon="16.375972420665">
        <ele>0</ele>
        <time>2019-08-01T19:53:25Z</time>
      </trkpt>
      <trkpt lat="54.435636749291" lon="16.375901677429">
        <ele>0</ele>
        <time>2019-08-01T19:53:30Z</time>
      </trkpt>
      <trkpt lat="54.435613112333" lon="16.375808135425">
        <ele>0</ele>
        <time>2019-08-01T19:53:41Z</time>
      </trkpt>
      <trkpt lat="54.435610597763" lon="16.375738649474">
        <ele>0</ele>
        <time>2019-08-01T19:53:55Z</time>
      </trkpt>
      <trkpt lat="54.435608586107" lon="16.375674108844">
        <ele>0</ele>
        <time>2019-08-01T19:53:59Z</time>
      </trkpt>
      <trkpt lat="54.435657117308" lon="16.375225090461">
        <ele>0</ele>
        <time>2019-08-01T19:54:32Z</time>
      </trkpt>
      <trkpt lat="54.43568544813" lon="16.37504496343">
        <ele>0</ele>
        <time>2019-08-01T19:54:43Z</time>
      </trkpt>
      <trkpt lat="54.435679916076" lon="16.374864333485">
        <ele>0</ele>
        <time>2019-08-01T19:54:54Z</time>
      </trkpt>
      <trkpt lat="54.435699278265" lon="16.374689654689">
        <ele>0</ele>
        <time>2019-08-01T19:55:06Z</time>
      </trkpt>
      <trkpt lat="54.435675306031" lon="16.374536433557">
        <ele>0</ele>
        <time>2019-08-01T19:55:17Z</time>
      </trkpt>
      <trkpt lat="54.435668600511" lon="16.374488069994">
        <ele>0</ele>
        <time>2019-08-01T19:55:20Z</time>
      </trkpt>
      <trkpt lat="54.435659631878" lon="16.374347421712">
        <ele>0</ele>
        <time>2019-08-01T19:55:32Z</time>
      </trkpt>
      <trkpt lat="54.43566700795" lon="16.37428891605">
        <ele>0</ele>
        <time>2019-08-01T19:55:36Z</time>
      </trkpt>
      <trkpt lat="54.435671701814" lon="16.374227560542">
        <ele>0</ele>
        <time>2019-08-01T19:55:40Z</time>
      </trkpt>
      <trkpt lat="54.435642616621" lon="16.373832353957">
        <ele>0</ele>
        <time>2019-08-01T19:56:11Z</time>
      </trkpt>
      <trkpt lat="54.435545386581" lon="16.373717857203">
        <ele>2.6</ele>
        <time>2019-08-01T19:56:28Z</time>
      </trkpt>
      <trkpt lat="54.43516074119" lon="16.373315274546">
        <ele>8.2</ele>
        <time>2019-08-01T19:57:13Z</time>
      </trkpt>
      <trkpt lat="54.435105504469" lon="16.373154425885">
        <ele>3.8</ele>
        <time>2019-08-01T19:57:30Z</time>
      </trkpt>
      <trkpt lat="54.435171050927" lon="16.372957954149">
        <ele>7.4</ele>
        <time>2019-08-01T19:57:56Z</time>
      </trkpt>
      <trkpt lat="54.435195442256" lon="16.372880505393">
        <ele>8</ele>
        <time>2019-08-01T19:58:03Z</time>
      </trkpt>
      <trkpt lat="54.435227544933" lon="16.372744215699">
        <ele>7.6</ele>
        <time>2019-08-01T19:58:12Z</time>
      </trkpt>
      <trkpt lat="54.435250343701" lon="16.372696019774">
        <ele>7.8</ele>
        <time>2019-08-01T19:58:16Z</time>
      </trkpt>
      <trkpt lat="54.435358889306" lon="16.372228980306">
        <ele>2.8</ele>
        <time>2019-08-01T19:59:11Z</time>
      </trkpt>
      <trkpt lat="54.435402307548" lon="16.372056983718">
        <ele>1</ele>
        <time>2019-08-01T19:59:23Z</time>
      </trkpt>
      <trkpt lat="54.435437846804" lon="16.371924465879">
        <ele>0.4</ele>
        <time>2019-08-01T19:59:32Z</time>
      </trkpt>
      <trkpt lat="54.435469362748" lon="16.371688515394">
        <ele>0</ele>
        <time>2019-08-01T19:59:45Z</time>
      </trkpt>
      <trkpt lat="54.435483109064" lon="16.371631602293">
        <ele>0</ele>
        <time>2019-08-01T19:59:49Z</time>
      </trkpt>
      <trkpt lat="54.435554019938" lon="16.371505538517">
        <ele>0</ele>
        <time>2019-08-01T20:00:53Z</time>
      </trkpt>
      <trkpt lat="54.43556307239" lon="16.371549459673">
        <ele>0</ele>
        <time>2019-08-01T20:01:17Z</time>
      </trkpt>
      <trkpt lat="54.435533568102" lon="16.371570582061">
        <ele>0</ele>
        <time>2019-08-01T20:01:38Z</time>
      </trkpt>
      <trkpt lat="54.4355203247" lon="16.371552309519">
        <ele>0</ele>
        <time>2019-08-01T20:02:38Z</time>
      </trkpt>
      <trkpt lat="54.435618309111" lon="16.371270426222">
        <ele>0</ele>
        <time>2019-08-01T20:03:32Z</time>
      </trkpt>
      <trkpt lat="54.43545075493" lon="16.371964196085">
        <ele>1</ele>
        <time>2019-08-01T20:04:57Z</time>
      </trkpt>
      <trkpt lat="54.435389064146" lon="16.372224956994">
        <ele>2.6</ele>
        <time>2019-08-01T20:05:36Z</time>
      </trkpt>
      <trkpt lat="54.435255037565" lon="16.37261840338">
        <ele>2.4</ele>
        <time>2019-08-01T20:06:36Z</time>
      </trkpt>
      <trkpt lat="54.435189155831" lon="16.372822335007">
        <ele>4.4</ele>
        <time>2019-08-01T20:06:57Z</time>
      </trkpt>
      <trkpt lat="54.435311950666" lon="16.373387275067">
        <ele>1.4</ele>
        <time>2019-08-01T20:09:30Z</time>
      </trkpt>
      <trkpt lat="54.435338688927" lon="16.37340714017">
        <ele>1</ele>
        <time>2019-08-01T20:09:33Z</time>
      </trkpt>
      <trkpt lat="54.435707660165" lon="16.373847944291">
        <ele>2.2</ele>
        <time>2019-08-01T20:10:24Z</time>
      </trkpt>
      <trkpt lat="54.435733057322" lon="16.374062520931">
        <ele>4.2</ele>
        <time>2019-08-01T20:10:39Z</time>
      </trkpt>
      <trkpt lat="54.435689303804" lon="16.374368795557">
        <ele>0</ele>
        <time>2019-08-01T20:11:10Z</time>
      </trkpt>
      <trkpt lat="54.435615543084" lon="16.375139511262">
        <ele>0</ele>
        <time>2019-08-01T20:12:08Z</time>
      </trkpt>
      <trkpt lat="54.435614537256" lon="16.375153173759">
        <ele>0</ele>
        <time>2019-08-01T20:12:09Z</time>
      </trkpt>
      <trkpt lat="54.435597354361" lon="16.375273118748">
        <ele>0</ele>
        <time>2019-08-01T20:12:18Z</time>
      </trkpt>
      <trkpt lat="54.43558486533" lon="16.375435392332">
        <ele>0</ele>
        <time>2019-08-01T20:12:30Z</time>
      </trkpt>
      <trkpt lat="54.435576231973" lon="16.376139974846">
        <ele>2.2</ele>
        <time>2019-08-01T20:13:25Z</time>
      </trkpt>
      <trkpt lat="54.435568185349" lon="16.376243239854">
        <ele>1.6</ele>
        <time>2019-08-01T20:13:32Z</time>
      </trkpt>
      <trkpt lat="54.43554211764" lon="16.376413476243">
        <ele>0</ele>
        <time>2019-08-01T20:13:46Z</time>
      </trkpt>
      <trkpt lat="54.435533903378" lon="16.376555884724">
        <ele>0</ele>
        <time>2019-08-01T20:14:01Z</time>
      </trkpt>
      <trkpt lat="54.435524180374" lon="16.376869032508">
        <ele>0</ele>
        <time>2019-08-01T20:14:23Z</time>
      </trkpt>
      <trkpt lat="54.435528874238" lon="16.37695268387">
        <ele>0</ele>
        <time>2019-08-01T20:14:32Z</time>
      </trkpt>
      <trkpt lat="54.435548571703" lon="16.377081848949">
        <ele>0.4</ele>
        <time>2019-08-01T20:14:44Z</time>
      </trkpt>
      <trkpt lat="54.435593833963" lon="16.377226604362">
        <ele>0</ele>
        <time>2019-08-01T20:15:00Z</time>
      </trkpt>
      <trkpt lat="54.435742025955" lon="16.377502368872">
        <ele>0</ele>
        <time>2019-08-01T20:15:26Z</time>
      </trkpt>
      <trkpt lat="54.436151649408" lon="16.377826999859">
        <ele>3.6</ele>
        <time>2019-08-01T20:16:18Z</time>
      </trkpt>
      <trkpt lat="54.436219961893" lon="16.37787385468">
        <ele>7.8</ele>
        <time>2019-08-01T20:16:34Z</time>
      </trkpt>
      <trkpt lat="54.436248627991" lon="16.37790486771">
        <ele>9</ele>
        <time>2019-08-01T20:16:38Z</time>
      </trkpt>
      <trkpt lat="54.436342253814" lon="16.377975191851">
        <ele>9.6</ele>
        <time>2019-08-01T20:16:49Z</time>
      </trkpt>
      <trkpt lat="54.436470077789" lon="16.378072924805">
        <ele>7</ele>
        <time>2019-08-01T20:17:05Z</time>
      </trkpt>
      <trkpt lat="54.436528080537" lon="16.378139477091">
        <ele>4.4</ele>
        <time>2019-08-01T20:17:18Z</time>
      </trkpt>
      <trkpt lat="54.436579964498" lon="16.378071835158">
        <ele>4.4</ele>
        <time>2019-08-01T20:17:26Z</time>
      </trkpt>
      <trkpt lat="54.436610055519" lon="16.377992290927">
        <ele>4.6</ele>
        <time>2019-08-01T20:17:32Z</time>
      </trkpt>
      <trkpt lat="54.436649869544" lon="16.377818869416">
        <ele>2.6</ele>
        <time>2019-08-01T20:17:49Z</time>
      </trkpt>
      <trkpt lat="54.436806778712" lon="16.377308160249">
        <ele>0</ele>
        <time>2019-08-01T20:18:25Z</time>
      </trkpt>
      <trkpt lat="54.436824883616" lon="16.377254767546">
        <ele>0</ele>
        <time>2019-08-01T20:18:29Z</time>
      </trkpt>
      <trkpt lat="54.436966537726" lon="16.37715301128">
        <ele>0</ele>
        <time>2019-08-01T20:19:20Z</time>
      </trkpt>
      <trkpt lat="54.437098720289" lon="16.377255019003">
        <ele>4</ele>
        <time>2019-08-01T20:20:01Z</time>
      </trkpt>
    </trkseg>
  </trk>
</gpx>